createdAt,value
2019-02-22T00:01:28.340Z,98131.55
2019-02-22T00:03:55.316Z,98126.95
2019-02-22T00:06:21.968Z,98127.45
2019-02-22T00:08:48.665Z,98132.42
2019-02-22T00:11:15.588Z,98126.81
2019-02-22T00:13:42.409Z,98127.97
2019-02-22T00:16:09.365Z,98125.79
2019-02-22T00:18:36.196Z,98135.50
2019-02-22T00:21:02.809Z,98122.03
2019-02-22T00:23:29.701Z,98131.05
2019-02-22T00:25:56.536Z,98123.66
2019-02-22T00:28:23.136Z,98127.08
2019-02-22T00:30:49.759Z,98132.90
2019-02-22T00:33:16.532Z,98123.88
2019-02-22T00:35:43.195Z,98131.63
2019-02-22T00:38:11.154Z,98130.61
2019-02-22T00:40:37.770Z,98124.53
2019-02-22T00:43:04.660Z,98123.50
2019-02-22T00:45:31.273Z,98123.84
2019-02-22T00:47:57.988Z,98123.55
2019-02-22T00:50:24.751Z,98121.47
2019-02-22T00:52:51.389Z,98116.61
2019-02-22T00:55:18.065Z,98123.49
2019-02-22T00:57:44.874Z,98112.00
2019-02-22T01:00:11.875Z,98118.39
2019-02-22T01:02:38.611Z,98114.61
2019-02-22T01:05:05.493Z,98104.27
2019-02-22T01:07:32.092Z,98116.77
2019-02-22T01:09:59.094Z,98112.66
2019-02-22T01:12:25.890Z,98103.77
2019-02-22T01:14:52.567Z,98092.83
2019-02-22T01:17:19.189Z,98090.86
2019-02-22T01:19:46.094Z,98090.88
2019-02-22T01:22:12.678Z,98092.41
2019-02-22T01:24:39.389Z,98092.25
2019-02-22T01:27:06.019Z,98078.39
2019-02-22T01:29:32.639Z,98079.66
2019-02-22T01:31:59.730Z,98081.34
2019-02-22T01:34:26.589Z,98077.20
2019-02-22T01:36:53.230Z,98068.55
2019-02-22T01:39:19.860Z,98070.89
2019-02-22T01:41:46.486Z,98068.80
2019-02-22T01:44:13.184Z,98060.90
2019-02-22T01:46:40.273Z,98057.25
2019-02-22T01:49:07.138Z,98051.46
2019-02-22T01:51:33.734Z,98066.31
2019-02-22T01:54:00.397Z,98055.17
2019-02-22T01:56:27.381Z,98051.90
2019-02-22T01:58:53.985Z,98053.69
2019-02-22T02:01:20.710Z,98048.63
2019-02-22T02:03:47.674Z,98046.36
2019-02-22T02:06:14.600Z,98047.20
2019-02-22T02:08:42.540Z,98042.77
2019-02-22T02:11:09.128Z,98048.34
2019-02-22T02:13:35.837Z,98041.94
2019-02-22T02:16:02.431Z,98042.77
2019-02-22T02:18:29.106Z,98041.78
2019-02-22T02:20:55.809Z,98046.69
2019-02-22T02:23:22.433Z,98050.16
2019-02-22T02:25:49.349Z,98042.10
2019-02-22T02:28:16.313Z,98040.32
2019-02-22T02:30:43.832Z,98038.18
2019-02-22T02:33:10.502Z,98031.94
2019-02-22T02:35:38.088Z,98034.23
2019-02-22T02:38:04.745Z,98021.42
2019-02-22T02:40:31.639Z,98013.72
2019-02-22T02:42:58.234Z,98015.38
2019-02-22T02:45:24.855Z,98006.19
2019-02-22T02:47:52.084Z,98001.09
2019-02-22T02:50:19.207Z,98009.13
2019-02-22T02:52:46.105Z,98000.27
2019-02-22T02:55:14.499Z,98003.72
2019-02-22T02:57:41.236Z,98001.76
2019-02-22T03:00:07.932Z,98001.75
2019-02-22T03:02:34.735Z,97986.81
2019-02-22T03:05:01.748Z,97966.64
2019-02-22T03:07:28.408Z,97962.73
2019-02-22T03:09:55.363Z,97956.13
2019-02-22T03:12:21.994Z,97942.84
2019-02-22T03:14:48.640Z,97936.77
2019-02-22T03:17:16.531Z,97925.45
2019-02-22T03:19:45.648Z,97927.42
2019-02-22T03:22:12.483Z,97928.56
2019-02-22T03:24:39.094Z,97936.79
2019-02-22T03:27:05.823Z,97953.84
2019-02-22T03:29:32.972Z,97959.41
2019-02-22T03:31:59.950Z,97965.80
2019-02-22T03:34:27.778Z,97959.73
2019-02-22T03:36:54.910Z,97957.93
2019-02-22T03:39:21.661Z,97958.07
2019-02-22T03:41:48.591Z,97960.38
2019-02-22T03:44:15.397Z,97951.80
2019-02-22T03:46:42.090Z,97946.83
2019-02-22T03:49:08.842Z,97938.80
2019-02-22T03:51:35.847Z,97945.41
2019-02-22T03:54:02.904Z,97940.16
2019-02-22T03:56:29.860Z,97939.95
2019-02-22T03:58:56.599Z,97938.46
2019-02-22T04:01:23.435Z,97935.37
2019-02-22T04:03:50.354Z,97932.65
2019-02-22T04:06:17.046Z,97941.53
2019-02-22T04:08:45.497Z,97940.19
2019-02-22T04:11:12.150Z,97941.69
2019-02-22T04:13:39.122Z,97942.50
2019-02-22T04:16:05.740Z,97951.05
2019-02-22T04:18:32.364Z,97945.28
2019-02-22T04:20:59.395Z,97943.40
2019-02-22T04:23:26.291Z,97943.19
2019-02-22T04:25:52.950Z,97949.96
2019-02-22T04:28:19.664Z,97941.63
2019-02-22T04:30:46.414Z,97936.34
2019-02-22T04:33:13.328Z,97933.05
2019-02-22T04:35:40.497Z,97935.08
2019-02-22T04:38:07.466Z,97932.09
2019-02-22T04:40:34.034Z,97930.82
2019-02-22T04:43:00.671Z,97921.78
2019-02-22T04:45:27.494Z,97921.69
2019-02-22T04:47:54.247Z,97925.92
2019-02-22T04:50:20.876Z,97921.96
2019-02-22T04:52:47.644Z,97922.13
2019-02-22T04:55:15.972Z,97924.26
2019-02-22T04:57:43.630Z,97936.71
2019-02-22T05:00:28.172Z,97941.25
2019-02-22T05:02:54.970Z,97944.81
2019-02-22T05:05:21.875Z,97946.39
2019-02-22T05:07:48.754Z,97952.16
2019-02-22T05:10:16.150Z,97937.94
2019-02-22T05:12:42.984Z,97937.77
2019-02-22T05:17:53.836Z,97958.60
2019-02-22T05:20:20.507Z,97971.56
2019-02-22T05:22:48.178Z,97977.12
2019-02-22T05:25:16.356Z,97980.10
2019-02-22T05:27:44.283Z,98002.41
2019-02-22T05:30:12.114Z,98020.45
2019-02-22T05:32:39.125Z,98011.27
2019-02-22T05:35:06.625Z,98013.63
2019-02-22T05:37:33.229Z,98006.95
2019-02-22T05:40:00.506Z,98012.45
2019-02-22T05:42:28.702Z,98010.89
2019-02-22T05:44:55.361Z,98022.25
2019-02-22T05:47:22.252Z,98026.94
2019-02-22T05:49:48.950Z,98028.52
2019-02-22T05:52:16.639Z,98017.20
2019-02-22T05:54:43.334Z,98012.83
2019-02-22T05:57:10.615Z,98014.05
2019-02-22T05:59:37.407Z,98019.41
2019-02-22T06:02:05.020Z,98026.39
2019-02-22T06:04:31.663Z,98032.01
2019-02-22T06:06:58.534Z,98030.70
2019-02-22T06:09:25.107Z,98033.63
2019-02-22T06:11:51.777Z,98041.98
2019-02-22T06:14:18.760Z,98051.95
2019-02-22T06:16:45.690Z,98051.06
2019-02-22T06:19:13.101Z,98048.86
2019-02-22T06:21:39.783Z,98044.16
2019-02-22T06:24:06.694Z,98038.78
2019-02-22T06:26:33.664Z,98033.71
2019-02-22T06:29:01.410Z,98028.03
2019-02-22T06:31:28.271Z,98038.72
2019-02-22T06:33:55.007Z,98048.42
2019-02-22T06:36:21.944Z,98055.14
2019-02-22T06:38:48.576Z,98057.33
2019-02-22T06:41:15.186Z,98056.98
2019-02-22T06:43:42.138Z,98064.17
2019-02-22T06:46:41.885Z,98067.24
2019-02-22T06:48:40.924Z,98074.89
2019-02-22T06:51:22.808Z,98068.59
2019-02-22T06:56:37.820Z,98055.94
2019-02-22T06:59:06.129Z,98052.20
2019-02-22T07:06:54.191Z,98058.94
2019-02-22T07:09:21.879Z,98059.97
2019-02-22T07:11:48.637Z,98065.03
2019-02-22T07:25:25.052Z,98085.97
2019-02-22T07:27:51.716Z,98085.46
2019-02-22T07:30:19.813Z,98099.52
2019-02-22T07:32:48.211Z,98096.97
2019-02-22T07:35:15.758Z,98094.45
2019-02-22T07:37:42.790Z,98094.70
2019-02-22T07:40:10.172Z,98089.17
2019-02-22T07:42:37.396Z,98088.58
2019-02-22T07:45:04.368Z,98083.02
2019-02-22T07:47:31.087Z,98082.52
2019-02-22T07:49:59.639Z,98073.81
2019-02-22T07:52:27.128Z,98080.78
2019-02-22T07:54:54.938Z,98076.23
2019-02-22T07:57:21.600Z,98077.24
2019-02-22T07:59:48.685Z,98079.97
2019-02-22T08:02:18.820Z,98082.09
2019-02-22T08:04:46.607Z,98084.12
2019-02-22T08:07:13.374Z,98090.35
2019-02-22T08:09:40.121Z,98095.34
2019-02-22T08:12:06.790Z,98102.58
2019-02-22T08:14:33.388Z,98114.61
2019-02-22T08:17:00.325Z,98121.45
2019-02-22T08:19:27.279Z,98119.45
2019-02-22T08:21:54.480Z,98129.38
2019-02-22T08:24:21.395Z,98134.67
2019-02-22T08:26:48.738Z,98138.84
2019-02-22T08:29:15.422Z,98134.14
2019-02-22T08:31:42.004Z,98137.52
2019-02-22T08:34:09.256Z,98131.43
2019-02-22T08:36:35.920Z,98122.59
2019-02-22T08:39:02.608Z,98114.80
2019-02-22T08:41:29.287Z,98109.59
2019-02-22T08:43:56.221Z,98115.28
2019-02-22T08:46:22.867Z,98113.19
2019-02-22T08:48:50.403Z,98106.67
2019-02-22T08:51:16.993Z,98106.36
2019-02-22T08:53:43.744Z,98111.42
2019-02-22T08:56:10.366Z,98113.31
2019-02-22T08:58:37.081Z,98111.30
2019-02-22T09:01:03.989Z,98118.75
2019-02-22T09:03:30.779Z,98115.62
2019-02-22T09:05:57.376Z,98125.58
2019-02-22T09:08:24.019Z,98131.80
2019-02-22T09:11:00.146Z,98129.39
2019-02-22T09:13:19.978Z,98121.52
2019-02-22T09:15:46.575Z,98137.11
2019-02-22T09:18:13.216Z,98141.27
2019-02-22T09:20:40.013Z,98152.80
2019-02-22T09:23:07.663Z,98150.80
2019-02-22T09:25:34.407Z,98146.48
2019-02-22T09:28:01.349Z,98153.96
2019-02-22T09:30:28.232Z,98155.69
2019-02-22T09:32:55.381Z,98159.08
2019-02-22T09:35:22.095Z,98153.91
2019-02-22T09:37:49.572Z,98150.50
2019-02-22T09:40:16.292Z,98157.37
2019-02-22T09:42:42.879Z,98159.22
2019-02-22T09:45:09.622Z,98158.09
2019-02-22T09:47:37.370Z,98172.11
2019-02-22T09:50:04.313Z,98167.70
2019-02-22T09:52:31.480Z,98168.09
2019-02-22T09:54:58.549Z,98161.55
2019-02-22T09:57:25.393Z,98179.35
2019-02-22T09:59:52.109Z,98175.56
2019-02-22T10:02:19.822Z,98180.93
2019-02-22T10:04:54.506Z,98166.88
2019-02-22T10:07:14.934Z,98162.16
2019-02-22T10:09:41.598Z,98168.47
2019-02-22T10:12:08.249Z,98173.31
2019-02-22T10:14:34.860Z,98184.32
2019-02-22T10:17:01.668Z,98187.75
2019-02-22T10:19:28.638Z,98197.38
2019-02-22T10:21:57.541Z,98187.11
2019-02-22T10:24:24.323Z,98196.14
2019-02-22T10:26:51.202Z,98198.73
2019-02-22T10:29:18.346Z,98195.27
2019-02-22T10:31:45.009Z,98196.69
2019-02-22T10:34:11.855Z,98195.45
2019-02-22T10:36:45.139Z,98197.13
2019-02-22T10:39:07.014Z,98192.75
2019-02-22T10:41:33.658Z,98194.34
2019-02-22T10:44:00.473Z,98191.25
2019-02-22T10:46:27.361Z,98189.83
2019-02-22T10:48:54.075Z,98183.42
2019-02-22T10:51:20.822Z,98183.86
2019-02-22T10:53:47.466Z,98188.44
2019-02-22T10:56:14.244Z,98180.70
2019-02-22T10:58:40.881Z,98183.46
2019-02-22T11:01:07.767Z,98178.48
2019-02-22T11:03:34.657Z,98175.64
2019-02-22T11:06:01.370Z,98182.01
2019-02-22T11:08:28.010Z,98183.70
2019-02-22T11:10:54.664Z,98181.42
2019-02-22T11:13:21.566Z,98187.23
2019-02-22T11:15:48.987Z,98182.05
2019-02-22T11:18:15.612Z,98174.45
2019-02-22T11:20:42.499Z,98173.61
2019-02-22T11:23:09.131Z,98176.27
2019-02-22T11:25:35.725Z,98176.02
2019-02-22T11:28:02.816Z,98173.98
2019-02-22T11:30:29.831Z,98168.67
2019-02-22T11:32:56.983Z,98171.86
2019-02-22T11:35:23.910Z,98174.91
2019-02-22T11:37:51.202Z,98169.19
2019-02-22T11:40:17.767Z,98178.91
2019-02-22T11:42:44.724Z,98180.07
2019-02-22T11:45:11.718Z,98171.64
2019-02-22T11:47:38.940Z,98172.16
2019-02-22T11:50:05.882Z,98180.06
2019-02-22T11:52:33.115Z,98167.34
2019-02-22T11:54:59.883Z,98167.00
2019-02-22T11:57:27.121Z,98168.59
2019-02-22T11:59:54.001Z,98162.46
2019-02-22T12:02:21.357Z,98162.91
2019-02-22T12:04:47.983Z,98165.34
2019-02-22T12:07:14.689Z,98164.95
2019-02-22T12:09:41.380Z,98172.28
2019-02-22T12:12:08.387Z,98177.31
2019-02-22T12:14:35.407Z,98185.09
2019-02-22T12:17:02.425Z,98181.30
2019-02-22T12:19:29.294Z,98175.44
2019-02-22T12:21:56.867Z,98173.01
2019-02-22T12:24:24.108Z,98180.64
2019-02-22T12:26:51.640Z,98183.91
2019-02-22T12:29:18.362Z,98179.11
2019-02-22T12:31:45.065Z,98186.58
2019-02-22T12:34:11.652Z,98192.53
2019-02-22T12:36:38.671Z,98192.52
2019-02-22T12:39:05.464Z,98200.31
2019-02-22T12:41:32.150Z,98196.73
2019-02-22T12:44:00.003Z,98197.95
2019-02-22T12:46:29.211Z,98197.77
2019-02-22T12:48:55.848Z,98201.86
2019-02-22T12:51:23.475Z,98199.45
2019-02-22T12:53:51.418Z,98206.78
2019-02-22T12:56:27.501Z,98203.11
2019-02-22T12:58:49.319Z,98205.56
2019-02-22T13:01:16.180Z,98219.33
2019-02-22T13:03:42.843Z,98212.94
2019-02-22T13:06:09.978Z,98212.13
2019-02-22T13:08:37.005Z,98219.14
2019-02-22T13:11:03.947Z,98217.80
2019-02-22T13:13:30.850Z,98219.04
2019-02-22T13:15:58.007Z,98222.73
2019-02-22T13:18:24.995Z,98219.78
2019-02-22T13:20:53.272Z,98224.83
2019-02-22T13:23:20.227Z,98231.40
2019-02-22T13:25:46.951Z,98234.27
2019-02-22T13:28:13.594Z,98243.90
2019-02-22T13:30:40.280Z,98251.45
2019-02-22T13:33:07.202Z,98259.42
2019-02-22T13:35:34.160Z,98262.07
2019-02-22T13:38:01.126Z,98263.84
2019-02-22T13:40:28.392Z,98256.94
2019-02-22T13:42:55.277Z,98252.64
2019-02-22T13:45:26.770Z,98267.99
2019-02-22T13:47:52.699Z,98269.13
2019-02-22T13:50:19.443Z,98265.88
2019-02-22T13:52:46.363Z,98271.98
2019-02-22T13:55:13.165Z,98281.69
2019-02-22T13:57:40.080Z,98274.48
2019-02-22T14:00:06.725Z,98280.75
2019-02-22T14:02:33.761Z,98294.02
2019-02-22T14:05:00.858Z,98298.36
2019-02-22T14:07:27.748Z,98296.27
2019-02-22T14:09:54.456Z,98301.42
2019-02-22T14:12:22.909Z,98309.21
2019-02-22T14:14:49.597Z,98319.56
2019-02-22T14:17:16.222Z,98316.75
2019-02-22T14:19:42.878Z,98320.34
2019-02-22T14:22:09.752Z,98325.45
2019-02-22T14:24:37.046Z,98330.28
2019-02-22T14:27:03.911Z,98331.25
2019-02-22T14:29:31.046Z,98333.23
2019-02-22T14:31:57.792Z,98338.59
2019-02-22T14:34:25.100Z,98345.27
2019-02-22T14:36:53.209Z,98348.94
2019-02-22T14:39:20.029Z,98341.80
2019-02-22T14:41:46.935Z,98351.67
2019-02-22T14:44:13.544Z,98371.23
2019-02-22T14:46:40.268Z,98368.45
2019-02-22T14:49:07.323Z,98389.41
2019-02-22T14:51:35.611Z,98395.11
2019-02-22T14:54:03.911Z,98409.73
2019-02-22T14:56:31.398Z,98400.39
2019-02-22T14:58:59.412Z,98411.52
2019-02-22T15:01:30.974Z,98409.93
2019-02-22T15:03:57.631Z,98412.59
2019-02-22T15:06:24.270Z,98415.39
2019-02-22T15:08:51.319Z,98414.33
2019-02-22T15:11:17.935Z,98421.13
2019-02-22T15:13:45.086Z,98425.82
2019-02-22T15:16:11.690Z,98428.32
2019-02-22T15:18:38.562Z,98438.50
2019-02-22T15:21:05.991Z,98438.73
2019-02-22T15:23:32.890Z,98441.14
2019-02-22T15:25:59.752Z,98436.22
2019-02-22T15:28:26.591Z,98439.52
2019-02-22T15:30:53.935Z,98446.44
2019-02-22T15:33:20.844Z,98452.55
2019-02-22T15:35:47.513Z,98451.56
2019-02-22T15:38:14.400Z,98464.19
2019-02-22T15:40:41.152Z,98463.33
2019-02-22T15:43:07.892Z,98468.63
2019-02-22T15:45:34.720Z,98479.81
2019-02-22T15:48:01.670Z,98478.09
2019-02-22T15:50:28.323Z,98470.38
2019-02-22T15:52:54.953Z,98478.05
2019-02-22T15:55:21.912Z,98474.12
2019-02-22T15:57:48.820Z,98491.23
2019-02-22T16:00:15.782Z,98492.29
2019-02-22T16:02:42.538Z,98486.59
2019-02-22T16:05:09.153Z,98490.57
2019-02-22T16:07:44.384Z,98481.03
2019-02-22T16:10:04.754Z,98492.23
2019-02-22T16:12:31.596Z,98488.48
2019-02-22T16:14:58.231Z,98498.13
2019-02-22T16:17:26.165Z,98497.84
2019-02-22T16:19:54.352Z,98503.57
2019-02-22T16:22:20.964Z,98504.31
2019-02-22T16:24:47.586Z,98504.66
2019-02-22T16:27:14.190Z,98507.22
2019-02-22T16:29:40.817Z,98511.09
2019-02-22T16:32:07.520Z,98516.63
2019-02-22T16:34:43.151Z,98513.23
2019-02-22T16:37:03.105Z,98525.84
2019-02-22T16:39:30.759Z,98517.18
2019-02-22T16:41:57.640Z,98525.70
2019-02-22T16:44:24.874Z,98509.25
2019-02-22T16:46:51.472Z,98522.89
2019-02-22T16:49:18.403Z,98516.13
2019-02-22T16:51:45.033Z,98526.00
2019-02-22T16:54:11.755Z,98504.60
2019-02-22T16:56:41.874Z,98513.75
2019-02-22T16:59:08.844Z,98532.14
2019-02-22T17:01:35.580Z,98547.69
2019-02-22T17:04:02.849Z,98544.17
2019-02-22T17:06:29.734Z,98550.48
2019-02-22T17:08:56.924Z,98560.77
2019-02-22T17:11:25.045Z,98565.86
2019-02-22T17:13:51.919Z,98567.19
2019-02-22T17:16:18.900Z,98565.12
2019-02-22T17:18:45.809Z,98577.89
2019-02-22T17:21:12.409Z,98578.95
2019-02-22T17:23:39.817Z,98575.63
2019-02-22T17:26:06.816Z,98584.03
2019-02-22T17:28:33.378Z,98611.06
2019-02-22T17:31:00.021Z,98595.98
2019-02-22T17:33:27.193Z,98612.48
2019-02-22T17:35:55.353Z,98610.19
2019-02-22T17:38:22.362Z,98618.56
2019-02-22T17:40:49.085Z,98611.15
2019-02-22T17:43:16.189Z,98625.83
2019-02-22T17:45:42.909Z,98619.89
2019-02-22T17:48:09.552Z,98629.45
2019-02-22T17:50:36.184Z,98636.96
2019-02-22T17:53:04.297Z,98646.23
2019-02-22T17:55:31.075Z,98647.38
2019-02-22T17:57:58.019Z,98646.08
2019-02-22T18:00:24.621Z,98652.49
2019-02-22T18:02:51.301Z,98673.86
2019-02-22T18:05:18.143Z,98669.41
2019-02-22T18:07:45.153Z,98667.09
2019-02-22T18:10:11.898Z,98677.77
2019-02-22T18:12:38.549Z,98690.37
2019-02-22T18:15:05.308Z,98695.83
2019-02-22T18:17:32.212Z,98703.66
2019-02-22T18:19:58.834Z,98698.94
2019-02-22T18:22:26.244Z,98684.08
2019-02-22T18:24:53.051Z,98696.67
2019-02-22T18:27:19.676Z,98710.66
2019-02-22T18:29:46.531Z,98703.72
2019-02-22T18:32:13.445Z,98704.00
2019-02-22T18:34:40.139Z,98711.16
2019-02-22T18:37:07.334Z,98711.66
2019-02-22T18:39:34.849Z,98709.85
2019-02-22T18:42:01.573Z,98719.69
2019-02-22T18:44:28.206Z,98712.02
2019-02-22T18:46:55.259Z,98725.33
2019-02-22T18:49:21.959Z,98741.06
2019-02-22T18:51:48.917Z,98745.58
2019-02-22T18:54:15.655Z,98740.25
2019-02-22T18:56:43.346Z,98742.55
2019-02-22T18:59:10.024Z,98758.61
2019-02-22T19:01:37.089Z,98752.86
2019-02-22T19:04:05.178Z,98769.45
2019-02-22T19:06:31.938Z,98771.06
2019-02-22T19:08:58.867Z,98762.97
2019-02-22T19:11:25.885Z,98782.97
2019-02-22T19:13:52.554Z,98789.11
2019-02-22T19:16:19.589Z,98797.95
2019-02-22T19:18:46.339Z,98805.08
2019-02-22T19:21:13.078Z,98808.94
2019-02-22T19:23:39.698Z,98824.36
2019-02-22T19:26:06.350Z,98830.00
2019-02-22T19:28:33.079Z,98821.41
2019-02-22T19:30:59.701Z,98842.91
2019-02-22T19:33:26.337Z,98851.09
2019-02-22T19:35:54.363Z,98854.39
2019-02-22T19:38:21.150Z,98854.61
2019-02-22T19:40:48.194Z,98868.25
2019-02-22T19:43:14.814Z,98870.80
2019-02-22T19:45:41.603Z,98880.28
2019-02-22T19:50:52.737Z,98892.48
2019-02-22T19:53:21.411Z,98906.80
2019-02-22T19:55:47.962Z,98897.66
2019-02-22T19:58:15.389Z,98906.14
2019-02-22T20:00:42.790Z,98911.70
2019-02-22T20:03:09.764Z,98920.56
2019-02-22T20:05:36.654Z,98911.22
2019-02-22T20:08:03.575Z,98915.91
2019-02-22T20:10:32.404Z,98929.08
2019-02-22T20:12:59.170Z,98931.05
2019-02-22T20:15:25.787Z,98944.22
2019-02-22T20:17:54.844Z,98955.05
2019-02-22T20:20:21.970Z,98960.84
2019-02-22T20:22:52.610Z,98961.52
2019-02-22T20:25:19.012Z,98971.27
2019-02-22T20:27:45.723Z,98978.14
2019-02-22T20:30:12.597Z,98975.98
2019-02-22T20:32:39.861Z,98990.53
2019-02-22T20:35:06.784Z,98990.86
2019-02-22T20:37:33.719Z,99003.32
2019-02-22T20:40:00.375Z,98994.41
2019-02-22T20:42:26.999Z,99018.61
2019-02-22T20:44:53.879Z,99019.94
2019-02-22T20:47:20.505Z,99019.88
2019-02-22T20:49:47.162Z,99026.01
2019-02-22T20:52:13.961Z,99023.20
2019-02-22T20:54:40.568Z,99027.08
2019-02-22T20:57:07.204Z,99022.09
2019-02-22T20:59:34.012Z,99026.10
2019-02-22T21:02:00.869Z,99037.42
2019-02-22T21:04:27.520Z,99043.77
2019-02-22T21:06:54.184Z,99041.36
2019-02-22T21:09:21.070Z,99055.02
2019-02-22T21:11:48.240Z,99054.08
2019-02-22T21:14:15.049Z,99057.72
2019-02-22T21:16:41.960Z,99056.29
2019-02-22T21:19:08.582Z,99060.91
2019-02-22T21:21:35.185Z,99068.06
2019-02-22T21:24:09.469Z,99068.57
2019-02-22T21:26:36.185Z,99071.66
2019-02-22T21:29:02.868Z,99076.59
2019-02-22T21:31:29.461Z,99081.00
2019-02-22T21:34:01.625Z,99085.77
2019-02-22T21:36:29.334Z,99093.04
2019-02-22T21:38:55.948Z,99097.00
2019-02-22T21:41:22.929Z,99101.16
2019-02-22T21:43:49.505Z,99107.55
2019-02-22T21:46:16.430Z,99107.50
2019-02-22T21:48:43.084Z,99113.18
2019-02-22T21:51:09.702Z,99118.27
2019-02-22T21:53:36.479Z,99120.92
2019-02-22T21:56:03.325Z,99130.70
2019-02-22T21:58:35.760Z,99138.41
2019-02-22T22:01:02.569Z,99139.62
2019-02-22T22:06:01.179Z,99137.56
2019-02-22T22:08:27.964Z,99146.53
2019-02-22T22:10:54.980Z,99148.90
2019-02-22T22:13:21.762Z,99148.61
2019-02-22T22:15:48.346Z,99152.09
2019-02-22T22:18:15.369Z,99161.55
2019-02-22T22:20:41.992Z,99166.24
2019-02-22T22:23:11.085Z,99168.28
2019-02-22T22:25:39.649Z,99174.97
2019-02-22T22:28:07.309Z,99172.86
2019-02-22T22:30:34.033Z,99173.25
2019-02-22T22:33:03.061Z,99189.19
2019-02-22T22:35:30.034Z,99184.75
2019-02-22T22:37:56.600Z,99189.50
2019-02-22T22:40:23.267Z,99201.55
2019-02-22T22:42:50.178Z,99203.94
2019-02-22T22:45:16.875Z,99206.55
2019-02-22T22:47:43.575Z,99209.89
2019-02-22T22:50:10.218Z,99203.11
2019-02-22T22:52:37.030Z,99217.15
2019-02-22T22:55:03.860Z,99210.95
2019-02-22T22:57:30.454Z,99212.27
2019-02-22T22:59:59.439Z,99222.04
2019-02-22T23:02:26.589Z,99221.80
2019-02-22T23:04:54.533Z,99225.48
2019-02-22T23:07:21.148Z,99229.16
2019-02-22T23:09:47.872Z,99228.64
2019-02-22T23:12:14.608Z,99229.33
2019-02-22T23:14:41.216Z,99245.23
2019-02-22T23:17:07.914Z,99250.90
2019-02-22T23:19:34.657Z,99260.19
2019-02-22T23:22:01.312Z,99254.33
2019-02-22T23:24:27.965Z,99261.72
2019-02-22T23:26:54.907Z,99265.81
2019-02-22T23:29:21.870Z,99267.62
2019-02-22T23:31:48.477Z,99274.36
2019-02-22T23:34:15.091Z,99275.16
2019-02-22T23:36:42.969Z,99273.61
2019-02-22T23:39:10.352Z,99285.38
2019-02-22T23:41:38.136Z,99285.27
2019-02-22T23:44:05.061Z,99291.00
2019-02-22T23:46:31.785Z,99292.65
2019-02-22T23:48:58.388Z,99288.13
2019-02-22T23:51:25.492Z,99293.97
2019-02-22T23:53:52.237Z,99301.56
2019-02-22T23:56:19.183Z,99302.38
2019-02-22T23:58:46.075Z,99298.93
